Etusivu
METAR-TAF:

METAR-TAF

Lentoasemat :

Apalachicola, Florida, Yhdysvallat

Leveyspiiri: 29-43-37N, Pituuspiiri: 085-01-29W, korkeus merenpinnasta: 6 m

Tämänhetkinen sää

Tämä raportti tehtiin 50 minuuttia sitten, kello 22.53 UTC
Tuuli 10 kn etelästä/kaakosta
Lämpötila 23°C
Kosteus 78%
Ilmanpaine 1012 hPa
Näkyvyys: 16.1 km
Muutamia pilviä 5000 ft:n korkeudessa

METAR: KAAF 252253Z AUTO 16010KT 10SM FEW050 23/19 A2988 RMK AO2 SLP117 T02280194

Aika: 19:43 (23:43 UTC)


TAF: puuttuu

Säähavainnot ja -ennusteet yli 4000 lentoasemalta (METAR- ja TAF-raportit).

Käytössä olevat sääasemat on merkitty karttaan keltaisilla ja punaisilla pisteillä.

Aseta hiiri pisteen päälle nähdäksesi sääaseman nimen.

Klikkaa sitten nähdäksesi säähavainnot ja -ennusteet.

Kartan vaihtaminen: klikkaa mustalla rastilla varustettuja vihreitä pisteitä, niin voit zoomata sisään; viivalla varustettua vihreää pistettä, niin voit zoomata ulos tai vihreitä nuolia, niin pääset viereisille kartoille.


METAR-TAF: